CFG2220 EDLW-EDDF
Flight info
| Callsign | CFG2220 |
|---|---|
| Flight time | 0h 29m |
| Altitude | 8000 |
| Route | GMH8Q GMH DCT COL/N0345F110 T911 ROLIS ROLIS5A |
| Aircraft | A20N/M-SDE2E3FGHIRWXY/LB1 |
Departure
| Time | 2026-05-05 12:32 |
|---|---|
| Airport | Dortmund Airport (EDLW) |
Arrival
| Time | 2026-05-05 13:02 |
|---|---|
| Airport | Frankfurt Main Airport (EDDF) |
| Time | Latitude | Longitude | Altitude | Speed | Heading |
|---|---|---|---|---|---|
| 2026-05-05 12:14 | 51.51536 | 7.61182 | 424 ft | 0 kts | 152° |
| 2026-05-05 12:28 | 51.51552 | 7.61170 | 431 ft | 3 kts | 184° |
| 2026-05-05 12:28 | 51.51569 | 7.61180 | 426 ft | 3 kts | 232° |
| 2026-05-05 12:28 | 51.51579 | 7.61196 | 426 ft | 0 kts | 242° |
| 2026-05-05 12:29 | 51.51575 | 7.61178 | 425 ft | 4 kts | 255° |
| 2026-05-05 12:30 | 51.51591 | 7.61106 | 429 ft | 7 kts | 280° |
| 2026-05-05 12:30 | 51.51566 | 7.60975 | 423 ft | 10 kts | 240° |
| 2026-05-05 12:30 | 51.51495 | 7.60777 | 430 ft | 36 kts | 239° |
| 2026-05-05 12:30 | 51.51382 | 7.60458 | 425 ft | 33 kts | 240° |
| 2026-05-05 12:31 | 51.51404 | 7.60272 | 431 ft | 18 kts | 326° |
| 2026-05-05 12:31 | 51.51512 | 7.60317 | 417 ft | 18 kts | 59° |
| 2026-05-05 12:31 | 51.51586 | 7.60526 | 416 ft | 26 kts | 60° |
| 2026-05-05 12:31 | 51.51633 | 7.60656 | 422 ft | 0 kts | 60° |
| 2026-05-05 12:32 | 51.51636 | 7.60666 | 414 ft | 13 kts | 60° |
| 2026-05-05 12:32 | 51.51877 | 7.61339 | 424 ft | 126 kts | 62° |
| 2026-05-05 12:32 | 51.52430 | 7.62859 | 811 ft | 182 kts | 57° |
| 2026-05-05 12:32 | 51.53143 | 7.64771 | 1524 ft | 214 kts | 58° |
| 2026-05-05 12:33 | 51.53887 | 7.66965 | 2629 ft | 235 kts | 62° |
| 2026-05-05 12:33 | 51.54710 | 7.69378 | 3683 ft | 254 kts | 62° |
| 2026-05-05 12:33 | 51.55594 | 7.71923 | 4485 ft | 266 kts | 63° |
| 2026-05-05 12:33 | 51.56141 | 7.74773 | 4889 ft | 269 kts | 89° |
| 2026-05-05 12:34 | 51.55708 | 7.77642 | 4994 ft | 267 kts | 123° |
| 2026-05-05 12:34 | 51.54365 | 7.79591 | 4996 ft | 263 kts | 157° |
| 2026-05-05 12:34 | 51.52582 | 7.79952 | 4995 ft | 260 kts | 189° |
| 2026-05-05 12:34 | 51.50865 | 7.79153 | 4993 ft | 261 kts | 200° |
| 2026-05-05 12:35 | 51.49178 | 7.78100 | 4989 ft | 259 kts | 201° |
| 2026-05-05 12:35 | 51.47498 | 7.77041 | 4992 ft | 259 kts | 201° |
| 2026-05-05 12:35 | 51.45817 | 7.76009 | 4993 ft | 260 kts | 200° |
| 2026-05-05 12:35 | 51.44089 | 7.75137 | 4992 ft | 260 kts | 191° |
| 2026-05-05 12:36 | 51.42284 | 7.75148 | 5019 ft | 261 kts | 169° |
| 2026-05-05 12:36 | 51.40510 | 7.75980 | 5588 ft | 270 kts | 162° |
| 2026-05-05 12:36 | 51.38705 | 7.76998 | 6888 ft | 275 kts | 161° |
| 2026-05-05 12:36 | 51.36925 | 7.78018 | 8513 ft | 271 kts | 162° |
| 2026-05-05 12:37 | 51.35139 | 7.79036 | 9947 ft | 274 kts | 161° |
| 2026-05-05 12:37 | 51.33337 | 7.80057 | 11006 ft | 287 kts | 162° |
| 2026-05-05 12:37 | 51.31360 | 7.81170 | 11661 ft | 316 kts | 162° |
| 2026-05-05 12:37 | 51.29182 | 7.82393 | 11935 ft | 342 kts | 162° |
| 2026-05-05 12:38 | 51.26917 | 7.83667 | 11966 ft | 349 kts | 161° |
| 2026-05-05 12:38 | 51.24683 | 7.85220 | 11951 ft | 351 kts | 153° |
| 2026-05-05 12:38 | 51.22570 | 7.87177 | 11951 ft | 352 kts | 150° |
| 2026-05-05 12:38 | 51.20479 | 7.89258 | 11950 ft | 352 kts | 149° |
| 2026-05-05 12:39 | 51.18415 | 7.91362 | 11959 ft | 353 kts | 148° |
| 2026-05-05 12:39 | 51.16354 | 7.93484 | 11946 ft | 353 kts | 148° |
| 2026-05-05 12:39 | 51.14295 | 7.95609 | 11959 ft | 352 kts | 148° |
| 2026-05-05 12:39 | 51.12237 | 7.97737 | 11954 ft | 352 kts | 148° |
| 2026-05-05 12:40 | 51.10209 | 7.99834 | 11942 ft | 352 kts | 148° |
| 2026-05-05 12:40 | 51.08151 | 8.01960 | 11953 ft | 352 kts | 148° |
| 2026-05-05 12:40 | 51.06095 | 8.04082 | 11944 ft | 352 kts | 148° |
| 2026-05-05 12:40 | 51.04038 | 8.06205 | 11946 ft | 351 kts | 148° |
| 2026-05-05 12:41 | 51.01985 | 8.08320 | 11948 ft | 351 kts | 148° |
| 2026-05-05 12:41 | 50.99924 | 8.10442 | 11944 ft | 351 kts | 148° |
| 2026-05-05 12:41 | 50.97902 | 8.12522 | 11949 ft | 351 kts | 148° |
| 2026-05-05 12:41 | 50.95847 | 8.14633 | 11954 ft | 351 kts | 148° |
| 2026-05-05 12:42 | 50.93792 | 8.16743 | 11952 ft | 351 kts | 148° |
| 2026-05-05 12:42 | 50.91738 | 8.18848 | 11955 ft | 351 kts | 148° |
| 2026-05-05 12:42 | 50.89684 | 8.20952 | 11953 ft | 352 kts | 148° |
| 2026-05-05 12:42 | 50.87630 | 8.23053 | 11962 ft | 352 kts | 148° |
| 2026-05-05 12:43 | 50.85573 | 8.25155 | 11963 ft | 352 kts | 148° |
| 2026-05-05 12:43 | 50.83503 | 8.27269 | 11955 ft | 352 kts | 148° |
| 2026-05-05 12:43 | 50.81452 | 8.29360 | 11958 ft | 351 kts | 148° |
| 2026-05-05 12:43 | 50.80412 | 8.30420 | 11956 ft | 351 kts | 148° |
| 2026-05-05 12:44 | 50.80288 | 8.30547 | 11958 ft | 351 kts | 149° |
| 2026-05-05 12:44 | 50.78758 | 8.32106 | 11951 ft | 351 kts | 148° |
| 2026-05-05 12:45 | 50.78118 | 8.32757 | 11957 ft | 351 kts | 148° |
| 2026-05-05 12:45 | 50.76761 | 8.34139 | 11951 ft | 351 kts | 148° |
| 2026-05-05 12:45 | 50.73885 | 8.37056 | 11686 ft | 380 kts | 148° |
| 2026-05-05 12:45 | 50.72402 | 8.38560 | 11526 ft | 382 kts | 148° |
| 2026-05-05 12:46 | 50.69441 | 8.41562 | 11187 ft | 382 kts | 148° |
| 2026-05-05 12:46 | 50.67929 | 8.43094 | 10790 ft | 377 kts | 148° |
| 2026-05-05 12:46 | 50.65771 | 8.45280 | 10212 ft | 365 kts | 148° |
| 2026-05-05 12:46 | 50.63665 | 8.47410 | 9882 ft | 346 kts | 148° |
| 2026-05-05 12:47 | 50.61714 | 8.49381 | 9583 ft | 327 kts | 148° |
| 2026-05-05 12:47 | 50.59842 | 8.51270 | 9295 ft | 311 kts | 148° |
| 2026-05-05 12:47 | 50.58071 | 8.53055 | 9071 ft | 295 kts | 148° |
| 2026-05-05 12:47 | 50.56371 | 8.54766 | 8740 ft | 285 kts | 148° |
| 2026-05-05 12:48 | 50.54718 | 8.56428 | 8307 ft | 279 kts | 148° |
| 2026-05-05 12:48 | 50.53089 | 8.58064 | 7821 ft | 277 kts | 148° |
| 2026-05-05 12:48 | 50.51475 | 8.59684 | 7344 ft | 275 kts | 148° |
| 2026-05-05 12:48 | 50.49875 | 8.61288 | 7043 ft | 273 kts | 148° |
| 2026-05-05 12:49 | 50.48262 | 8.62904 | 6850 ft | 274 kts | 148° |
| 2026-05-05 12:49 | 50.46659 | 8.64507 | 6714 ft | 273 kts | 148° |
| 2026-05-05 12:49 | 50.45054 | 8.66106 | 6579 ft | 273 kts | 148° |
| 2026-05-05 12:49 | 50.43459 | 8.67703 | 6457 ft | 272 kts | 148° |
| 2026-05-05 12:50 | 50.41866 | 8.69298 | 6338 ft | 271 kts | 148° |
| 2026-05-05 12:50 | 50.40293 | 8.70873 | 6220 ft | 271 kts | 148° |
| 2026-05-05 12:50 | 50.38700 | 8.72462 | 6092 ft | 270 kts | 148° |
| 2026-05-05 12:50 | 50.37105 | 8.74051 | 5881 ft | 270 kts | 148° |
| 2026-05-05 12:51 | 50.35524 | 8.75625 | 5627 ft | 268 kts | 148° |
| 2026-05-05 12:51 | 50.33951 | 8.77191 | 5372 ft | 268 kts | 148° |
| 2026-05-05 12:51 | 50.32375 | 8.78757 | 5178 ft | 267 kts | 148° |
| 2026-05-05 12:51 | 50.30836 | 8.80286 | 5058 ft | 266 kts | 148° |
| 2026-05-05 12:52 | 50.29265 | 8.81847 | 4988 ft | 265 kts | 148° |
| 2026-05-05 12:52 | 50.27707 | 8.83394 | 4989 ft | 266 kts | 148° |
| 2026-05-05 12:52 | 50.26143 | 8.84946 | 4988 ft | 266 kts | 148° |
| 2026-05-05 12:52 | 50.24579 | 8.86493 | 4989 ft | 266 kts | 148° |
| 2026-05-05 12:53 | 50.23012 | 8.88043 | 4994 ft | 266 kts | 148° |
| 2026-05-05 12:53 | 50.21450 | 8.89588 | 4994 ft | 266 kts | 148° |
| 2026-05-05 12:53 | 50.19914 | 8.91106 | 4985 ft | 252 kts | 148° |
| 2026-05-05 12:53 | 50.18499 | 8.92505 | 4984 ft | 236 kts | 148° |
| 2026-05-05 12:54 | 50.15749 | 8.95220 | 4989 ft | 234 kts | 148° |
| 2026-05-05 12:54 | 50.14475 | 8.96778 | 4944 ft | 229 kts | 140° |
| 2026-05-05 12:54 | 50.13124 | 8.97958 | 4812 ft | 216 kts | 171° |
| 2026-05-05 12:55 | 50.11716 | 8.97566 | 4674 ft | 205 kts | 213° |
| 2026-05-05 12:55 | 50.10929 | 8.95902 | 4554 ft | 191 kts | 253° |
| 2026-05-05 12:55 | 50.10994 | 8.93922 | 4356 ft | 182 kts | 291° |
| 2026-05-05 12:55 | 50.11581 | 8.92200 | 4125 ft | 177 kts | 293° |
| 2026-05-05 12:56 | 50.11764 | 8.90342 | 4002 ft | 174 kts | 266° |
| 2026-05-05 12:56 | 50.11589 | 8.88583 | 3970 ft | 155 kts | 253° |
| 2026-05-05 12:56 | 50.11285 | 8.87070 | 3956 ft | 141 kts | 250° |
| 2026-05-05 12:56 | 50.10956 | 8.85649 | 3938 ft | 138 kts | 248° |
| 2026-05-05 12:57 | 50.10619 | 8.84254 | 3827 ft | 137 kts | 248° |
| 2026-05-05 12:57 | 50.10285 | 8.82861 | 3630 ft | 137 kts | 249° |
| 2026-05-05 12:57 | 50.09952 | 8.81464 | 3435 ft | 138 kts | 249° |
| 2026-05-05 12:57 | 50.09618 | 8.80061 | 3229 ft | 138 kts | 249° |
| 2026-05-05 12:58 | 50.09288 | 8.78679 | 3053 ft | 138 kts | 249° |
| 2026-05-05 12:58 | 50.08961 | 8.77309 | 2889 ft | 130 kts | 249° |
| 2026-05-05 12:58 | 50.08654 | 8.76024 | 2705 ft | 125 kts | 249° |
| 2026-05-05 12:58 | 50.08354 | 8.74767 | 2527 ft | 124 kts | 249° |
| 2026-05-05 12:59 | 50.08054 | 8.73510 | 2369 ft | 123 kts | 249° |
| 2026-05-05 12:59 | 50.07754 | 8.72254 | 2208 ft | 124 kts | 249° |
| 2026-05-05 12:59 | 50.07454 | 8.70999 | 2049 ft | 124 kts | 249° |
| 2026-05-05 13:00 | 50.06856 | 8.68493 | 1716 ft | 122 kts | 249° |
| 2026-05-05 13:00 | 50.06562 | 8.67264 | 1552 ft | 122 kts | 249° |
| 2026-05-05 13:01 | 50.05674 | 8.63550 | 1104 ft | 122 kts | 250° |
| 2026-05-05 13:01 | 50.05385 | 8.62299 | 1001 ft | 122 kts | 249° |
| 2026-05-05 13:01 | 50.05074 | 8.61071 | 814 ft | 123 kts | 250° |
| 2026-05-05 13:01 | 50.04782 | 8.59858 | 577 ft | 119 kts | 244° |
| 2026-05-05 13:02 | 50.04503 | 8.58664 | 388 ft | 116 kts | 249° |
| 2026-05-05 13:02 | 50.04246 | 8.57579 | 351 ft | 80 kts | 250° |
| 2026-05-05 13:02 | 50.04174 | 8.57192 | 349 ft | 1 kts | 270° |
| 2026-05-05 13:02 | 50.04181 | 8.57059 | 353 ft | 20 kts | 275° |
| 2026-05-05 13:03 | 50.04190 | 8.56972 | 351 ft | 0 kts | 278° |
| 2026-05-05 13:04 | 50.04221 | 8.56872 | 359 ft | 9 kts | 336° |
| 2026-05-05 13:04 | 50.04271 | 8.56897 | 356 ft | 12 kts | 50° |
| 2026-05-05 13:04 | 50.04305 | 8.57025 | 355 ft | 16 kts | 70° |
| 2026-05-05 13:04 | 50.04353 | 8.57223 | 349 ft | 21 kts | 70° |
| 2026-05-05 13:05 | 50.04406 | 8.57444 | 353 ft | 23 kts | 69° |
| 2026-05-05 13:05 | 50.04490 | 8.57560 | 349 ft | 12 kts | 354° |
| 2026-05-05 13:05 | 50.04574 | 8.57508 | 353 ft | 18 kts | 345° |
| 2026-05-05 13:05 | 50.04627 | 8.57564 | 351 ft | 18 kts | 68° |
| 2026-05-05 13:06 | 50.04670 | 8.57745 | 353 ft | 19 kts | 69° |
| 2026-05-05 13:06 | 50.04757 | 8.57922 | 352 ft | 17 kts | 5° |
| 2026-05-05 13:06 | 50.04846 | 8.57842 | 354 ft | 13 kts | 297° |
| 2026-05-05 13:06 | 50.04882 | 8.57706 | 354 ft | 15 kts | 294° |
| 2026-05-05 13:07 | 50.04912 | 8.57604 | 352 ft | 0 kts | 295° |
| 2026-05-05 13:07 | 50.04912 | 8.57600 | 351 ft | 2 kts | 287° |
| 2026-05-05 13:07 | 50.04888 | 8.57542 | 355 ft | 7 kts | 202° |
| 2026-05-05 13:07 | 50.04855 | 8.57522 | 352 ft | 2 kts | 204° |
| 2026-05-05 13:08 | 50.04854 | 8.57521 | 352 ft | 0 kts | 204° |
| 2026-05-05 13:08 | 50.04851 | 8.57519 | 351 ft | 0 kts | 204° |